createdAt,value
2019-02-19T00:01:11.286Z,12.45
2019-02-19T00:03:41.596Z,13.03
2019-02-19T00:06:11.784Z,12.90
2019-02-19T00:08:42.111Z,12.40
2019-02-19T00:11:12.391Z,11.28
2019-02-19T00:13:43.006Z,11.22
2019-02-19T00:16:13.208Z,12.33
2019-02-19T00:18:43.616Z,11.73
2019-02-19T00:21:13.804Z,11.75
2019-02-19T00:23:44.031Z,11.95
2019-02-19T00:26:13.197Z,12.37
2019-02-19T00:28:43.586Z,12.35
2019-02-19T00:31:14.279Z,13.35
2019-02-19T00:33:44.615Z,13.00
2019-02-19T00:36:14.973Z,12.80
2019-02-19T00:38:45.184Z,11.90
2019-02-19T00:41:15.544Z,11.90
2019-02-19T00:43:47.296Z,12.82
2019-02-19T00:46:17.588Z,13.03
2019-02-19T00:48:47.865Z,11.95
2019-02-19T00:51:18.165Z,12.78
2019-02-19T00:53:48.393Z,11.43
2019-02-19T00:56:18.785Z,11.57
2019-02-19T00:58:49.007Z,12.45
2019-02-19T01:01:19.195Z,11.60
2019-02-19T01:03:49.403Z,11.75
2019-02-19T01:06:19.728Z,11.22
2019-02-19T01:08:50.024Z,11.90
2019-02-19T01:11:20.321Z,11.68
2019-02-19T01:13:50.540Z,12.25
2019-02-19T01:16:20.736Z,11.63
2019-02-19T01:18:51.069Z,11.20
2019-02-19T01:21:21.355Z,11.88
2019-02-19T01:23:51.586Z,11.40
2019-02-19T01:26:21.759Z,11.38
2019-02-19T01:28:51.967Z,11.25
2019-02-19T01:31:23.572Z,11.55
2019-02-19T01:33:53.783Z,11.63
2019-02-19T01:36:23.971Z,10.88
2019-02-19T01:38:54.184Z,12.70
2019-02-19T01:41:24.389Z,12.28
2019-02-19T01:43:54.685Z,11.85
2019-02-19T01:46:24.972Z,10.55
2019-02-19T01:48:55.213Z,11.40
2019-02-19T01:51:25.409Z,11.25
2019-02-19T01:53:55.671Z,10.50
2019-02-19T01:56:25.955Z,10.60
2019-02-19T01:58:56.179Z,11.12
2019-02-19T02:01:26.491Z,10.32
2019-02-19T02:03:56.697Z,10.10
2019-02-19T02:06:26.980Z,11.03
2019-02-19T02:08:57.209Z,10.95
2019-02-19T02:11:27.391Z,11.03
2019-02-19T02:13:57.937Z,11.10
2019-02-19T02:16:28.111Z,11.35
2019-02-19T02:18:58.435Z,11.05
2019-02-19T02:21:28.735Z,10.63
2019-02-19T02:23:58.949Z,10.28
2019-02-19T02:26:29.140Z,10.50
2019-02-19T02:28:59.346Z,10.98
2019-02-19T02:31:29.545Z,10.20
2019-02-19T02:33:59.746Z,9.88
2019-02-19T02:36:29.927Z,10.45
2019-02-19T02:39:00.206Z,10.80
2019-02-19T02:41:30.406Z,10.82
2019-02-19T02:44:00.629Z,10.45
2019-02-19T02:46:30.898Z,11.18
2019-02-19T02:49:01.230Z,10.68
2019-02-19T02:51:31.633Z,10.25
2019-02-19T02:54:02.007Z,10.18
2019-02-19T02:56:32.182Z,9.70
2019-02-19T02:59:02.986Z,10.18
2019-02-19T03:01:33.173Z,10.15
2019-02-19T03:04:03.373Z,9.58
2019-02-19T03:06:40.883Z,10.70
2019-02-19T03:09:11.688Z,10.13
2019-02-19T03:11:41.877Z,10.55
2019-02-19T03:14:12.131Z,10.13
2019-02-19T03:16:42.269Z,10.05
2019-02-19T03:19:12.481Z,10.15
2019-02-19T03:21:42.674Z,10.00
2019-02-19T03:24:12.871Z,9.53
2019-02-19T03:26:43.053Z,10.63
2019-02-19T03:29:13.261Z,11.35
2019-02-19T03:31:43.446Z,11.15
2019-02-19T03:34:13.650Z,11.65
2019-02-19T03:36:43.842Z,10.70
2019-02-19T03:39:14.160Z,10.75
2019-02-19T03:41:44.357Z,11.45
2019-02-19T03:44:14.733Z,11.80
2019-02-19T03:46:45.026Z,11.48
2019-02-19T03:49:15.427Z,11.50
2019-02-19T03:51:45.708Z,10.85
2019-02-19T03:54:15.921Z,10.70
2019-02-19T03:56:46.110Z,11.28
2019-02-19T03:59:16.384Z,10.25
2019-02-19T04:01:46.677Z,10.68
2019-02-19T04:04:16.880Z,10.32
2019-02-19T04:06:47.056Z,10.90
2019-02-19T04:09:17.569Z,10.75
2019-02-19T04:11:47.739Z,9.90
2019-02-19T04:14:17.927Z,9.90
2019-02-19T04:16:48.981Z,10.55
2019-02-19T04:19:19.624Z,11.18
2019-02-19T04:21:50.119Z,10.78
2019-02-19T04:24:21.268Z,11.22
2019-02-19T04:26:51.547Z,12.00
2019-02-19T04:29:21.766Z,11.35
2019-02-19T04:31:51.984Z,10.45
2019-02-19T04:34:22.156Z,11.25
2019-02-19T04:36:52.359Z,10.40
2019-02-19T04:39:22.656Z,10.08
2019-02-19T04:41:52.866Z,10.15
2019-02-19T04:44:23.045Z,10.58
2019-02-19T04:46:53.258Z,10.38
2019-02-19T04:49:23.446Z,11.45
2019-02-19T04:51:53.649Z,10.43
2019-02-19T04:54:24.141Z,11.20
2019-02-19T04:56:54.427Z,11.35
2019-02-19T04:59:24.739Z,11.18
2019-02-19T05:01:54.997Z,10.78
2019-02-19T05:04:25.151Z,10.65
2019-02-19T05:06:55.369Z,10.45
2019-02-19T05:09:25.552Z,10.00
2019-02-19T05:11:55.776Z,10.32
2019-02-19T05:14:25.955Z,11.20
2019-02-19T05:16:56.161Z,10.63
2019-02-19T05:19:26.336Z,11.33
2019-02-19T05:21:56.547Z,10.70
2019-02-19T05:24:26.727Z,10.35
2019-02-19T05:26:57.228Z,10.55
2019-02-19T05:29:27.417Z,11.73
2019-02-19T05:31:57.624Z,10.30
2019-02-19T05:34:27.999Z,10.43
2019-02-19T05:36:58.584Z,10.70
2019-02-19T05:39:28.877Z,10.03
2019-02-19T05:42:00.477Z,10.43
2019-02-19T05:44:30.655Z,10.45
2019-02-19T05:47:00.850Z,10.70
2019-02-19T05:49:30.955Z,11.00
2019-02-19T05:52:02.155Z,10.48
2019-02-19T05:54:32.345Z,11.70
2019-02-19T05:57:02.543Z,11.45
2019-02-19T05:59:32.831Z,10.55
2019-02-19T06:02:03.034Z,10.00
2019-02-19T06:04:33.215Z,11.35
2019-02-19T06:07:03.606Z,10.13
2019-02-19T06:09:33.983Z,11.33
2019-02-19T06:12:04.206Z,10.23
2019-02-19T06:14:34.394Z,10.58
2019-02-19T06:17:04.694Z,10.85
2019-02-19T06:19:34.886Z,10.90
2019-02-19T06:22:05.466Z,10.50
2019-02-19T06:24:38.717Z,12.28
2019-02-19T06:27:09.031Z,12.65
2019-02-19T06:29:39.216Z,13.18
2019-02-19T06:32:09.831Z,15.13
2019-02-19T06:34:41.315Z,13.98
2019-02-19T06:37:11.525Z,13.32
2019-02-19T06:39:41.711Z,13.03
2019-02-19T06:42:13.520Z,15.03
2019-02-19T06:44:43.692Z,15.43
2019-02-19T06:47:13.905Z,12.65
2019-02-19T06:49:44.083Z,11.48
2019-02-19T06:52:14.296Z,11.55
2019-02-19T06:54:44.580Z,12.73
2019-02-19T06:57:14.886Z,10.90
2019-02-19T06:59:45.071Z,10.50
2019-02-19T07:02:19.914Z,10.85
2019-02-19T07:04:51.169Z,11.10
2019-02-19T07:07:21.471Z,11.20
2019-02-19T07:09:51.646Z,10.50
2019-02-19T07:12:21.861Z,12.15
2019-02-19T07:14:55.445Z,10.98
2019-02-19T07:17:25.753Z,10.40
2019-02-19T07:19:55.945Z,10.08
2019-02-19T07:22:26.135Z,9.58
2019-02-19T07:24:56.319Z,9.78
2019-02-19T07:27:26.528Z,10.58
2019-02-19T07:29:56.817Z,10.70
2019-02-19T07:32:27.115Z,12.13
2019-02-19T07:34:57.320Z,11.80
2019-02-19T07:37:27.732Z,11.80
2019-02-19T07:39:58.019Z,11.20
2019-02-19T07:42:28.225Z,10.98
2019-02-19T07:44:58.414Z,10.35
2019-02-19T07:47:28.715Z,10.45
2019-02-19T07:49:58.891Z,10.43
2019-02-19T07:52:29.097Z,9.28
2019-02-19T07:54:59.280Z,9.58
2019-02-19T07:57:29.550Z,9.58
2019-02-19T07:59:59.730Z,9.93
2019-02-19T08:02:29.946Z,12.33
2019-02-19T08:05:00.299Z,12.53
2019-02-19T08:07:30.627Z,11.30
2019-02-19T08:10:03.655Z,10.15
2019-02-19T08:12:33.828Z,9.88
2019-02-19T08:15:06.164Z,9.58
2019-02-19T08:17:36.738Z,8.88
2019-02-19T08:20:15.450Z,9.70
2019-02-19T08:22:40.688Z,10.55
2019-02-19T08:25:11.004Z,13.90
2019-02-19T08:27:41.421Z,13.40
2019-02-19T08:30:11.597Z,10.58
2019-02-19T08:32:41.914Z,12.20
2019-02-19T08:35:12.183Z,11.55
2019-02-19T08:37:44.099Z,10.80
2019-02-19T08:40:14.271Z,11.25
2019-02-19T08:42:44.483Z,9.90
2019-02-19T08:45:14.812Z,10.00
2019-02-19T08:47:45.207Z,10.32
2019-02-19T08:50:15.419Z,11.85
2019-02-19T08:52:45.603Z,11.43
2019-02-19T08:55:15.864Z,9.95
2019-02-19T08:57:46.035Z,8.98
2019-02-19T09:00:16.515Z,8.18
2019-02-19T09:02:46.711Z,9.05
2019-02-19T09:05:17.091Z,9.20
2019-02-19T09:07:47.255Z,9.60
2019-02-19T09:10:17.453Z,8.48
2019-02-19T09:12:47.840Z,8.35
2019-02-19T09:15:18.373Z,8.55
2019-02-19T09:17:51.923Z,7.95
2019-02-19T09:20:20.341Z,6.55
2019-02-19T09:22:50.601Z,6.90
2019-02-19T09:25:20.891Z,7.70
2019-02-19T09:27:51.836Z,6.87
2019-02-19T09:30:22.016Z,6.37
2019-02-19T09:32:52.176Z,5.85
2019-02-19T09:35:22.361Z,6.60
2019-02-19T09:37:52.529Z,6.37
2019-02-19T09:40:22.765Z,6.35
2019-02-19T09:42:53.000Z,7.80
2019-02-19T09:45:23.291Z,5.72
2019-02-19T09:48:00.964Z,5.78
2019-02-19T09:50:25.479Z,5.95
2019-02-19T09:53:00.008Z,6.08
2019-02-19T09:55:29.199Z,5.85
2019-02-19T09:58:00.729Z,6.25
2019-02-19T10:00:31.078Z,5.45
2019-02-19T10:03:01.365Z,6.12
2019-02-19T10:05:31.637Z,6.03
2019-02-19T10:08:02.197Z,5.58
2019-02-19T10:10:32.697Z,4.97
2019-02-19T10:13:03.393Z,5.40
2019-02-19T10:15:34.127Z,6.28
2019-02-19T10:18:10.273Z,5.62
2019-02-19T10:20:36.742Z,5.15
2019-02-19T10:23:06.892Z,5.20
2019-02-19T10:25:37.124Z,5.00
2019-02-19T10:28:07.376Z,5.12
2019-02-19T10:30:37.751Z,5.00
2019-02-19T10:33:07.895Z,5.20
2019-02-19T10:35:38.143Z,5.70
2019-02-19T10:38:08.377Z,5.90
2019-02-19T10:40:38.552Z,5.45
2019-02-19T10:43:10.104Z,5.83
2019-02-19T10:45:40.688Z,5.42
2019-02-19T10:48:18.592Z,5.60
2019-02-19T10:50:42.839Z,6.05
2019-02-19T10:53:13.095Z,5.90
2019-02-19T10:55:43.284Z,5.53
2019-02-19T10:58:22.120Z,6.20
2019-02-19T11:00:45.235Z,5.10
2019-02-19T11:03:15.388Z,5.08
2019-02-19T11:05:45.573Z,4.80
2019-02-19T11:08:15.719Z,5.00
2019-02-19T11:10:45.888Z,5.60
2019-02-19T11:13:16.052Z,5.15
2019-02-19T11:15:46.214Z,4.95
2019-02-19T11:18:16.462Z,4.85
2019-02-19T11:20:46.735Z,5.05
2019-02-19T11:23:17.101Z,4.92
2019-02-19T11:25:47.277Z,4.90
2019-02-19T11:28:17.539Z,5.10
2019-02-19T11:30:47.707Z,5.55
2019-02-19T11:33:18.053Z,4.70
2019-02-19T11:35:48.324Z,4.80
2019-02-19T11:38:18.459Z,4.62
2019-02-19T11:40:49.437Z,5.15
2019-02-19T11:43:19.565Z,4.95
2019-02-19T11:45:49.875Z,4.70
2019-02-19T11:48:20.072Z,4.83
2019-02-19T11:50:51.155Z,4.50
2019-02-19T11:53:22.326Z,4.83
2019-02-19T11:55:52.463Z,4.70
2019-02-19T11:58:22.730Z,5.08
2019-02-19T12:00:52.898Z,4.70
2019-02-19T12:03:23.047Z,4.50
2019-02-19T12:05:53.445Z,4.62
2019-02-19T12:08:23.595Z,5.60
2019-02-19T12:10:53.826Z,4.37
2019-02-19T12:13:23.988Z,4.90
2019-02-19T12:15:54.172Z,4.70
2019-02-19T12:18:24.374Z,5.08
2019-02-19T12:20:54.748Z,5.53
2019-02-19T12:23:25.013Z,4.90
2019-02-19T12:25:55.175Z,4.75
2019-02-19T12:28:25.957Z,4.97
2019-02-19T12:30:56.239Z,4.87
2019-02-19T12:33:26.397Z,4.87
2019-02-19T12:35:56.577Z,4.92
2019-02-19T12:38:26.763Z,4.62
2019-02-19T12:40:57.076Z,4.90
2019-02-19T12:43:27.315Z,5.37
2019-02-19T12:45:57.475Z,5.25
2019-02-19T12:48:27.695Z,5.37
2019-02-19T12:50:57.856Z,5.60
2019-02-19T12:53:28.035Z,4.87
2019-02-19T12:55:58.279Z,4.67
2019-02-19T12:58:29.170Z,4.58
2019-02-19T13:01:08.634Z,5.08
2019-02-19T13:03:38.288Z,5.30
2019-02-19T13:06:08.532Z,5.37
2019-02-19T13:08:38.726Z,5.80
2019-02-19T13:11:08.880Z,4.97
2019-02-19T13:13:39.129Z,6.03
2019-02-19T13:16:09.278Z,5.35
2019-02-19T13:18:39.467Z,5.20
2019-02-19T13:21:09.792Z,6.28
2019-02-19T13:23:39.977Z,6.72
2019-02-19T13:26:10.137Z,6.15
2019-02-19T13:28:40.320Z,6.65
2019-02-19T13:31:10.580Z,6.83
2019-02-19T13:33:40.931Z,6.17
2019-02-19T13:36:11.331Z,6.37
2019-02-19T13:38:41.516Z,7.10
2019-02-19T13:41:11.781Z,7.15
2019-02-19T13:43:42.337Z,6.85
2019-02-19T13:46:12.609Z,6.60
2019-02-19T13:48:42.780Z,7.42
2019-02-19T13:51:13.030Z,7.03
2019-02-19T13:53:44.844Z,7.10
2019-02-19T13:56:15.010Z,6.95
2019-02-19T13:58:45.175Z,6.65
2019-02-19T14:01:15.440Z,6.62
2019-02-19T14:03:45.615Z,6.25
2019-02-19T14:06:15.781Z,6.50
2019-02-19T14:08:45.963Z,6.37
2019-02-19T14:11:16.224Z,6.85
2019-02-19T14:13:48.438Z,7.00
2019-02-19T14:16:20.237Z,6.10
2019-02-19T14:18:52.065Z,7.67
2019-02-19T14:21:24.055Z,7.75
2019-02-19T14:24:10.423Z,7.60
2019-02-19T14:26:42.312Z,6.92
2019-02-19T14:29:16.839Z,7.20
2019-02-19T14:31:48.769Z,7.28
2019-02-19T14:34:23.545Z,7.03
2019-02-19T14:37:13.455Z,7.50
2019-02-19T14:39:50.799Z,7.35
2019-02-19T14:42:22.980Z,9.38
2019-02-19T14:44:57.604Z,8.55
2019-02-19T14:47:46.193Z,8.00
2019-02-19T14:50:29.529Z,8.08
2019-02-19T14:53:16.167Z,7.90
2019-02-19T14:56:00.171Z,7.72
2019-02-19T14:58:40.961Z,7.37
2019-02-19T15:01:15.688Z,7.55
2019-02-19T15:03:53.305Z,7.72
2019-02-19T15:06:37.178Z,8.30
2019-02-19T15:09:09.072Z,7.78
2019-02-19T15:11:52.996Z,8.30
2019-02-19T15:14:33.529Z,7.97
2019-02-19T15:17:21.462Z,7.85
2019-02-19T15:19:56.594Z,8.28
2019-02-19T15:22:45.159Z,8.00
2019-02-19T15:25:33.579Z,9.10
2019-02-19T15:28:05.500Z,9.20
2019-02-19T15:30:39.772Z,8.10
2019-02-19T15:33:14.729Z,11.43
2019-02-19T15:35:58.733Z,11.75
2019-02-19T15:38:33.284Z,9.03
2019-02-19T15:41:11.670Z,9.85
2019-02-19T15:43:52.605Z,10.10
2019-02-19T15:46:27.087Z,8.95
2019-02-19T15:49:16.689Z,10.80
2019-02-19T15:51:48.540Z,11.18
2019-02-19T15:54:20.591Z,13.13
2019-02-19T15:57:01.116Z,14.15
2019-02-19T15:59:35.504Z,12.33
2019-02-19T16:02:14.440Z,11.12
2019-02-19T16:04:50.129Z,10.78
2019-02-19T16:07:27.626Z,12.03
2019-02-19T16:09:59.468Z,11.03
2019-02-19T16:12:47.216Z,11.57
2019-02-19T16:15:20.559Z,15.70
2019-02-19T16:17:52.476Z,17.95
2019-02-19T16:20:27.401Z,15.72
2019-02-19T16:23:05.144Z,16.60
2019-02-19T16:25:36.996Z,15.55
2019-02-19T16:28:17.496Z,13.45
2019-02-19T16:30:49.466Z,14.43
2019-02-19T16:33:24.227Z,12.18
2019-02-19T16:36:11.996Z,11.08
2019-02-19T16:38:43.815Z,12.73
2019-02-19T16:41:33.648Z,11.57
2019-02-19T16:44:05.640Z,12.10
2019-02-19T16:46:53.504Z,11.38
2019-02-19T16:49:28.284Z,10.82
2019-02-19T16:52:03.402Z,10.68
2019-02-19T16:54:35.323Z,10.80
2019-02-19T16:57:23.998Z,10.05
2019-02-19T16:59:55.813Z,9.63
2019-02-19T17:02:39.643Z,12.58
2019-02-19T17:05:11.641Z,14.73
2019-02-19T17:07:43.612Z,12.50
2019-02-19T17:10:27.631Z,11.28
2019-02-19T17:13:00.275Z,13.98
2019-02-19T17:15:38.025Z,13.32
2019-02-19T17:18:18.697Z,12.40
2019-02-19T17:20:59.797Z,12.37
2019-02-19T17:23:34.459Z,12.78
2019-02-19T17:26:06.373Z,12.47
2019-02-19T17:28:56.827Z,12.43
2019-02-19T17:31:31.415Z,12.37
2019-02-19T17:34:15.020Z,11.68
2019-02-19T17:36:53.932Z,13.03
2019-02-19T17:39:28.668Z,14.15
2019-02-19T17:42:00.481Z,16.25
2019-02-19T17:44:35.237Z,14.83
2019-02-19T17:47:28.115Z,14.60
2019-02-19T17:50:05.584Z,13.00
2019-02-19T17:52:59.546Z,13.90
2019-02-19T17:55:31.568Z,14.75
2019-02-19T17:58:03.616Z,15.95
2019-02-19T18:00:38.110Z,15.90
2019-02-19T18:03:10.009Z,14.03
2019-02-19T18:05:49.068Z,14.45
2019-02-19T18:08:28.142Z,15.03
2019-02-19T18:11:01.613Z,13.03
2019-02-19T18:13:50.873Z,13.28
2019-02-19T18:16:39.151Z,13.93
2019-02-19T18:19:09.357Z,13.85
2019-02-19T18:21:39.570Z,13.55
2019-02-19T18:24:11.286Z,12.65
2019-02-19T18:26:41.619Z,12.47
2019-02-19T18:29:11.833Z,12.40
2019-02-19T18:31:42.008Z,14.05
2019-02-19T18:34:12.241Z,12.73
2019-02-19T18:36:42.415Z,12.35
2019-02-19T18:39:14.229Z,12.37
2019-02-19T18:41:44.413Z,12.68
2019-02-19T18:44:14.719Z,14.03
2019-02-19T18:46:44.887Z,16.57
2019-02-19T18:49:15.179Z,15.23
2019-02-19T18:51:45.360Z,15.50
2019-02-19T18:54:15.580Z,14.85
2019-02-19T18:56:45.894Z,12.90
2019-02-19T18:59:16.239Z,12.35
2019-02-19T19:01:46.393Z,13.00
2019-02-19T19:04:16.601Z,14.95
2019-02-19T19:06:48.453Z,15.10
2019-02-19T19:09:18.657Z,15.25
2019-02-19T19:11:48.845Z,15.72
2019-02-19T19:14:19.052Z,14.03
2019-02-19T19:16:49.508Z,13.40
2019-02-19T19:19:20.285Z,12.25
2019-02-19T19:21:50.451Z,13.03
2019-02-19T19:24:20.689Z,13.08
2019-02-19T19:26:50.868Z,12.58
2019-02-19T19:29:21.672Z,11.65
2019-02-19T19:31:51.851Z,11.48
2019-02-19T19:34:22.476Z,11.08
2019-02-19T19:36:53.864Z,10.08
2019-02-19T19:39:24.061Z,10.20
2019-02-19T19:41:54.250Z,11.03
2019-02-19T19:44:25.019Z,10.55
2019-02-19T19:46:56.655Z,11.25
2019-02-19T19:49:26.873Z,12.13
2019-02-19T19:51:57.048Z,14.95
2019-02-19T19:54:28.212Z,13.43
2019-02-19T19:56:58.505Z,12.85
2019-02-19T19:59:28.711Z,13.55
2019-02-19T20:01:58.993Z,13.70
2019-02-19T20:04:29.215Z,13.98
2019-02-19T20:06:59.491Z,13.15
2019-02-19T20:09:29.900Z,14.43
2019-02-19T20:12:01.588Z,15.28
2019-02-19T20:14:31.881Z,14.70
2019-02-19T20:17:02.175Z,14.45
2019-02-19T20:19:32.483Z,13.93
2019-02-19T20:22:02.885Z,14.98
2019-02-19T20:24:33.165Z,15.53
2019-02-19T20:27:03.355Z,16.23
2019-02-19T20:29:33.755Z,14.58
2019-02-19T20:32:03.936Z,15.72
2019-02-19T20:34:34.140Z,16.75
2019-02-19T20:37:04.454Z,14.58
2019-02-19T20:39:34.647Z,14.20
2019-02-19T20:42:04.831Z,15.05
2019-02-19T20:44:35.043Z,14.43
2019-02-19T20:47:06.034Z,17.35
2019-02-19T20:49:36.266Z,15.83
2019-02-19T20:52:06.557Z,15.45
2019-02-19T20:54:36.754Z,16.02
2019-02-19T20:57:06.976Z,15.60
2019-02-19T20:59:37.247Z,16.35
2019-02-19T21:02:07.461Z,14.80
2019-02-19T21:04:38.027Z,17.48
2019-02-19T21:07:08.235Z,20.48
2019-02-19T21:09:43.783Z,19.37
2019-02-19T21:12:10.319Z,17.95
2019-02-19T21:14:40.502Z,16.80
2019-02-19T21:17:10.694Z,16.77
2019-02-19T21:19:40.870Z,15.60
2019-02-19T21:22:11.060Z,16.12
2019-02-19T21:24:41.224Z,18.37
2019-02-19T21:27:11.428Z,17.23
2019-02-19T21:29:41.701Z,16.57
2019-02-19T21:32:11.999Z,18.20
2019-02-19T21:34:42.273Z,18.12
2019-02-19T21:37:12.485Z,18.23
2019-02-19T21:39:42.663Z,19.62
2019-02-19T21:42:13.056Z,18.55
2019-02-19T21:44:43.229Z,17.05
2019-02-19T21:47:13.429Z,20.70
2019-02-19T21:49:43.635Z,18.73
2019-02-19T21:52:13.928Z,16.93
2019-02-19T21:54:44.210Z,16.67
2019-02-19T21:57:14.719Z,18.02
2019-02-19T21:59:44.903Z,18.90
2019-02-19T22:02:16.604Z,18.62
2019-02-19T22:04:46.820Z,17.40
2019-02-19T22:07:17.093Z,16.48
2019-02-19T22:09:47.379Z,17.77
2019-02-19T22:12:17.771Z,16.82
2019-02-19T22:14:47.953Z,17.10
2019-02-19T22:17:18.143Z,16.65
2019-02-19T22:19:48.327Z,16.90
2019-02-19T22:22:18.624Z,19.90
2019-02-19T22:24:48.919Z,19.80
2019-02-19T22:27:19.121Z,19.40
2019-02-19T22:29:50.497Z,16.77
2019-02-19T22:32:20.956Z,16.85
2019-02-19T22:34:51.136Z,15.85
2019-02-19T22:37:21.355Z,15.18
2019-02-19T22:39:51.524Z,16.30
2019-02-19T22:42:21.815Z,16.82
2019-02-19T22:44:54.950Z,15.60
2019-02-19T22:47:25.216Z,16.42
2019-02-19T22:49:55.383Z,15.48
2019-02-19T22:52:25.589Z,16.20
2019-02-19T22:54:59.867Z,14.68
2019-02-19T22:57:30.153Z,15.90
2019-02-19T23:00:00.536Z,14.60
2019-02-19T23:02:30.744Z,16.07
2019-02-19T23:05:01.123Z,15.53
2019-02-19T23:07:31.335Z,13.90
2019-02-19T23:10:01.520Z,17.35
2019-02-19T23:12:31.720Z,17.35
2019-02-19T23:15:03.665Z,16.37
2019-02-19T23:17:34.476Z,16.42
2019-02-19T23:20:06.405Z,16.90
2019-02-19T23:22:39.464Z,16.40
2019-02-19T23:25:27.379Z,16.97
2019-02-19T23:27:58.090Z,15.43
2019-02-19T23:30:28.454Z,16.07
2019-02-19T23:32:58.668Z,15.75
2019-02-19T23:35:39.008Z,16.73
2019-02-19T23:38:09.215Z,16.02
2019-02-19T23:40:39.383Z,15.38
2019-02-19T23:43:09.591Z,14.98
2019-02-19T23:45:39.782Z,13.43
2019-02-19T23:48:09.994Z,13.00
2019-02-19T23:50:40.286Z,13.13
2019-02-19T23:53:10.846Z,14.33
2019-02-19T23:55:41.585Z,14.78
2019-02-19T23:58:11.793Z,13.93
